aviador You're here:

LFBY Decoded Metar

DAX in FRANCE
Report Time2017-10-17 10:58:00
UTC Time2017-10-17 11:12:48
Flight Rules mvfr MVFR
Wind110° at 04 kt
W.Decomp.*RWY 08: 3.5 kt HW 2.0 kt RCW
W.Rank110° ranks 8
Current wind is below 110° avg. (4.4)
Visibility7000 m
Phenomena:N/A
Clouds:Few 008 Hf
Broken 210 Hf
Expected CloudBase > 2,000 ft AGL from Temp-Dew spread
Ceiling21,000 ft
Temp21°C (ISA +6)
Dew Point16°C (73% RH)
QNH1017 hPa
Density Alt938 ft
Elevation105 ft
Report Wrong Elevation
Raw Report
SPECI LFBY 171058Z 11004KT 050V140 7000 FEW008 BKN210 21/16 Q1017 RMK
B2=

Extra information for LFBY:More info

Metar Taf Metar & Taf Last 4 Metars F.Rules Stats Wind Profile Meteogram Temp Stats Airport Information Weather charts Add Link Nearby VenuesMetar ALERT Operation Metar Decoded Social comments